createdAt,value
2024-05-09T00:01:29.029Z,11.10
2024-05-09T00:03:59.138Z,11.10
2024-05-09T00:06:29.197Z,11.10
2024-05-09T00:08:59.455Z,10.90
2024-05-09T00:11:32.236Z,11.00
2024-05-09T00:14:05.287Z,11.00
2024-05-09T00:16:35.503Z,11.00
2024-05-09T00:19:05.645Z,10.90
2024-05-09T00:21:35.788Z,10.80
2024-05-09T00:24:05.820Z,10.80
2024-05-09T00:26:38.496Z,10.70
2024-05-09T00:29:08.581Z,10.70
2024-05-09T00:31:38.659Z,10.70
2024-05-09T00:34:08.910Z,10.50
2024-05-09T00:36:39.088Z,10.50
2024-05-09T00:39:09.157Z,10.50
2024-05-09T00:41:41.803Z,10.50
2024-05-09T00:44:14.019Z,10.40
2024-05-09T00:46:44.611Z,10.30
2024-05-09T00:49:15.656Z,10.30
2024-05-09T00:51:45.927Z,10.30
2024-05-09T00:54:16.154Z,10.20
2024-05-09T00:56:50.110Z,10.20
2024-05-09T00:59:20.661Z,10.10
2024-05-09T01:01:51.110Z,10.10
2024-05-09T01:04:21.338Z,10.00
2024-05-09T01:06:51.378Z,9.90
2024-05-09T01:09:21.479Z,9.90
2024-05-09T01:11:54.366Z,9.80
2024-05-09T01:14:24.510Z,9.80
2024-05-09T01:16:54.873Z,9.70
2024-05-09T01:19:29.484Z,9.70
2024-05-09T01:21:59.732Z,9.60
2024-05-09T01:24:32.421Z,9.60
2024-05-09T01:27:02.523Z,9.50
2024-05-09T01:29:32.656Z,9.50
2024-05-09T01:32:04.761Z,9.40
2024-05-09T01:34:34.949Z,9.40
2024-05-09T01:37:04.980Z,9.30
2024-05-09T01:39:37.806Z,9.30
2024-05-09T01:42:08.283Z,9.20
2024-05-09T01:44:38.399Z,9.20
2024-05-09T01:47:11.109Z,9.20
2024-05-09T01:49:43.243Z,9.10
2024-05-09T01:52:13.430Z,9.10
2024-05-09T01:54:46.247Z,9.10
2024-05-09T01:57:16.286Z,9.10
2024-05-09T01:59:46.320Z,9.00
2024-05-09T02:02:16.638Z,9.00
2024-05-09T02:04:50.241Z,8.90
2024-05-09T02:07:20.637Z,8.80
2024-05-09T02:09:54.587Z,8.80
2024-05-09T02:12:24.739Z,8.70
2024-05-09T02:14:54.897Z,8.70
2024-05-09T02:17:27.192Z,8.60
2024-05-09T02:19:57.390Z,8.60
2024-05-09T02:22:27.512Z,8.60
2024-05-09T02:25:00.160Z,8.60
2024-05-09T02:27:30.196Z,8.50
2024-05-09T02:30:00.213Z,8.50
2024-05-09T02:32:30.422Z,8.50
2024-05-09T02:35:00.693Z,8.40
2024-05-09T02:37:30.814Z,8.40
2024-05-09T02:40:00.850Z,8.40
2024-05-09T02:42:30.870Z,8.40
2024-05-09T02:44:58.284Z,8.30
2024-05-09T02:47:28.411Z,8.30
2024-05-09T02:49:56.253Z,8.20
2024-05-09T02:52:26.267Z,8.20
2024-05-09T02:54:53.806Z,8.10
2024-05-09T02:57:26.480Z,8.20
2024-05-09T02:59:53.887Z,8.10
2024-05-09T03:02:24.116Z,8.10
2024-05-09T03:04:51.674Z,8.00
2024-05-09T03:07:21.796Z,8.10
2024-05-09T03:09:49.182Z,8.00
2024-05-09T03:12:19.271Z,7.90
2024-05-09T03:14:53.131Z,7.90
2024-05-09T03:17:24.311Z,7.90
2024-05-09T03:19:52.085Z,7.90
2024-05-09T03:22:22.147Z,7.90
2024-05-09T03:24:49.575Z,7.90
2024-05-09T03:27:24.298Z,8.00
2024-05-09T03:29:54.297Z,8.00
2024-05-09T03:32:24.447Z,8.00
2024-05-09T03:34:51.969Z,8.00
2024-05-09T03:37:21.999Z,8.00
2024-05-09T03:39:52.058Z,7.90
2024-05-09T03:42:19.519Z,7.90
2024-05-09T03:44:49.610Z,7.90
2024-05-09T03:47:19.848Z,7.90
2024-05-09T03:49:50.005Z,7.90
2024-05-09T03:52:17.517Z,8.00
2024-05-09T03:54:48.763Z,8.00
2024-05-09T03:57:16.222Z,8.00
2024-05-09T03:59:46.283Z,8.00
2024-05-09T04:02:13.927Z,8.10
2024-05-09T04:04:47.319Z,8.10
2024-05-09T04:07:14.831Z,8.20
2024-05-09T04:09:44.845Z,8.20
2024-05-09T04:12:12.403Z,8.30
2024-05-09T04:14:43.160Z,8.40
2024-05-09T04:17:10.588Z,8.40
2024-05-09T04:19:40.806Z,8.50
2024-05-09T04:22:11.185Z,8.50
2024-05-09T04:24:41.228Z,8.60
2024-05-09T04:27:08.630Z,8.70
2024-05-09T04:29:39.118Z,8.70
2024-05-09T04:32:07.582Z,8.80
2024-05-09T04:34:40.428Z,8.80
2024-05-09T04:37:10.408Z,8.90
2024-05-09T04:39:40.377Z,9.00
2024-05-09T04:42:07.755Z,9.10
2024-05-09T04:44:37.851Z,9.10
2024-05-09T04:47:05.680Z,9.30
2024-05-09T04:49:36.008Z,9.40
2024-05-09T04:52:03.645Z,9.50
2024-05-09T04:54:36.933Z,9.50
2024-05-09T04:57:04.585Z,9.60
2024-05-09T04:59:34.760Z,9.70
2024-05-09T05:02:02.259Z,9.90
2024-05-09T05:04:32.523Z,10.20
2024-05-09T05:07:02.517Z,10.60
2024-05-09T05:09:37.787Z,11.30
2024-05-09T05:12:25.887Z,11.90
2024-05-09T05:14:55.984Z,12.70
2024-05-09T05:17:23.489Z,13.50
2024-05-09T05:19:56.961Z,14.20
2024-05-09T05:22:24.493Z,15.10
2024-05-09T05:24:57.219Z,16.20
2024-05-09T05:27:24.671Z,17.30
2024-05-09T05:29:54.739Z,18.30
2024-05-09T05:32:22.392Z,19.20
2024-05-09T05:34:52.624Z,20.00
2024-05-09T05:37:20.102Z,20.80
2024-05-09T05:39:52.544Z,21.50
2024-05-09T05:42:22.692Z,22.10
2024-05-09T05:44:52.825Z,22.80
2024-05-09T05:47:20.440Z,23.50
2024-05-09T05:49:50.620Z,23.80
2024-05-09T05:52:18.101Z,24.40
2024-05-09T05:54:48.947Z,24.90
2024-05-09T05:57:17.075Z,25.30
2024-05-09T05:59:49.819Z,25.90
2024-05-09T06:02:17.374Z,26.30
2024-05-09T06:04:47.776Z,26.60
2024-05-09T06:07:15.271Z,27.10
2024-05-09T06:09:47.631Z,27.60
2024-05-09T06:12:16.563Z,28.10
2024-05-09T06:14:49.417Z,28.40
2024-05-09T06:17:17.024Z,28.50
2024-05-09T06:19:47.355Z,28.70
2024-05-09T06:22:14.941Z,29.00
2024-05-09T06:24:45.024Z,29.30
2024-05-09T06:27:12.435Z,29.70
2024-05-09T06:29:42.568Z,29.90
2024-05-09T06:32:14.171Z,30.00
2024-05-09T06:34:44.625Z,29.90
2024-05-09T06:37:12.218Z,30.30
2024-05-09T06:39:42.334Z,30.90
2024-05-09T06:42:09.750Z,31.20
2024-05-09T06:44:39.982Z,31.50
2024-05-09T06:47:08.145Z,31.50
2024-05-09T06:49:41.503Z,31.80
2024-05-09T06:52:09.939Z,32.10
2024-05-09T06:54:40.288Z,32.20
2024-05-09T06:57:07.835Z,32.50
2024-05-09T06:59:37.853Z,32.70
2024-05-09T07:02:05.617Z,33.10
2024-05-09T07:04:35.860Z,33.20
2024-05-09T07:07:09.500Z,33.50
2024-05-09T07:09:39.521Z,33.80
2024-05-09T07:12:07.738Z,34.00
2024-05-09T07:14:38.579Z,34.40
2024-05-09T07:17:07.424Z,34.70
2024-05-09T07:19:37.792Z,34.80
2024-05-09T07:22:07.933Z,34.90
2024-05-09T07:24:39.869Z,34.90
2024-05-09T07:27:07.336Z,35.10
2024-05-09T07:29:38.656Z,35.10
2024-05-09T07:32:07.383Z,35.10
2024-05-09T07:34:37.642Z,35.30
2024-05-09T07:37:12.871Z,35.40
2024-05-09T07:39:43.012Z,35.60
2024-05-09T07:42:10.884Z,35.90
2024-05-09T07:44:40.968Z,35.90
2024-05-09T07:48:14.767Z,36.20
2024-05-09T07:53:35.360Z,36.40
2024-05-09T07:55:41.429Z,36.70
2024-05-09T07:58:09.148Z,36.80
2024-05-09T08:00:39.427Z,36.80
2024-05-09T08:03:07.023Z,36.90
2024-05-09T08:05:38.344Z,36.80
2024-05-09T08:08:09.088Z,36.80
2024-05-09T08:10:39.301Z,37.00
2024-05-09T08:13:06.827Z,37.10
2024-05-09T08:15:37.996Z,37.40
2024-05-09T08:18:08.868Z,37.10
2024-05-09T08:20:41.384Z,37.30
2024-05-09T08:23:11.973Z,37.60
2024-05-09T08:25:44.553Z,37.70
2024-05-09T08:28:12.326Z,37.70
2024-05-09T08:30:42.592Z,37.90
2024-05-09T08:33:10.228Z,37.80
2024-05-09T08:35:40.635Z,37.70
2024-05-09T08:38:11.108Z,37.50
2024-05-09T08:40:41.364Z,37.50
2024-05-09T08:43:12.048Z,37.50
2024-05-09T08:45:45.053Z,37.70
2024-05-09T08:48:15.447Z,37.90
2024-05-09T08:50:46.765Z,38.00
2024-05-09T08:53:16.891Z,37.90
2024-05-09T08:55:48.559Z,38.00
2024-05-09T08:58:18.271Z,38.00
2024-05-09T09:00:49.904Z,38.20
2024-05-09T09:03:19.778Z,38.30
2024-05-09T09:05:58.986Z,38.20
2024-05-09T09:08:29.180Z,38.30
2024-05-09T09:11:01.476Z,38.60
2024-05-09T09:13:29.406Z,38.70
2024-05-09T09:16:03.200Z,38.60
2024-05-09T09:18:31.462Z,38.60
2024-05-09T09:21:03.105Z,38.70
2024-05-09T09:23:33.950Z,38.70
2024-05-09T09:26:04.244Z,38.80
2024-05-09T09:28:36.294Z,38.70
2024-05-09T09:31:06.895Z,38.60
2024-05-09T09:33:36.323Z,38.80
2024-05-09T09:36:08.988Z,38.70
2024-05-09T09:38:41.359Z,38.40
2024-05-09T09:41:13.453Z,38.70
2024-05-09T09:43:42.463Z,38.80
2024-05-09T09:46:14.370Z,39.10
2024-05-09T09:48:42.723Z,39.30
2024-05-09T09:51:13.050Z,39.50
2024-05-09T09:53:44.597Z,39.50
2024-05-09T09:56:16.158Z,39.20
2024-05-09T09:58:45.034Z,38.80
2024-05-09T10:01:15.262Z,38.80
2024-05-09T10:03:45.859Z,38.70
2024-05-09T10:06:17.112Z,38.70
2024-05-09T10:08:48.973Z,38.80
2024-05-09T10:11:23.144Z,38.70
2024-05-09T10:13:51.953Z,38.70
2024-05-09T10:16:24.931Z,38.60
2024-05-09T10:18:52.706Z,38.30
2024-05-09T10:21:23.737Z,37.90
2024-05-09T10:24:00.577Z,37.40
2024-05-09T10:26:35.672Z,37.10
2024-05-09T10:29:12.421Z,36.70
2024-05-09T10:31:46.048Z,36.40
2024-05-09T10:34:18.550Z,36.00
2024-05-09T10:36:48.932Z,35.90
2024-05-09T10:39:20.971Z,35.80
2024-05-09T10:41:53.405Z,35.80
2024-05-09T10:44:22.090Z,35.80
2024-05-09T10:46:54.861Z,35.60
2024-05-09T10:49:23.068Z,35.40
2024-05-09T10:51:53.552Z,35.20
2024-05-09T10:54:23.772Z,35.00
2024-05-09T10:56:59.564Z,34.60
2024-05-09T10:59:33.296Z,34.30
2024-05-09T11:02:06.819Z,34.00
2024-05-09T11:04:35.208Z,33.70
2024-05-09T11:07:11.353Z,33.40
2024-05-09T11:09:42.551Z,33.00
2024-05-09T11:12:15.198Z,32.30
2024-05-09T11:14:53.148Z,31.70
2024-05-09T11:17:23.363Z,31.40
2024-05-09T11:19:51.196Z,31.10
2024-05-09T11:22:22.303Z,30.80
2024-05-09T11:24:55.074Z,30.60
2024-05-09T11:27:26.354Z,30.40
2024-05-09T11:29:53.970Z,30.20
2024-05-09T11:32:33.216Z,30.00
2024-05-09T11:35:00.968Z,29.70
2024-05-09T11:37:34.678Z,29.50
2024-05-09T11:40:13.743Z,29.30
2024-05-09T11:42:53.167Z,29.00
2024-05-09T11:45:20.922Z,28.80
2024-05-09T11:47:51.238Z,28.70
2024-05-09T11:50:26.634Z,28.60
2024-05-09T11:53:00.170Z,28.40
2024-05-09T11:55:31.003Z,28.40
2024-05-09T11:58:01.429Z,28.20
2024-05-09T12:00:36.198Z,28.10
2024-05-09T12:03:08.258Z,28.10
2024-05-09T12:05:35.839Z,28.00
2024-05-09T12:08:06.207Z,27.90
2024-05-09T12:10:37.047Z,27.90
2024-05-09T12:13:08.140Z,27.70
2024-05-09T12:15:38.072Z,27.60
2024-05-09T12:18:09.417Z,27.40
2024-05-09T12:20:39.553Z,27.20
2024-05-09T12:23:11.433Z,27.10
2024-05-09T12:25:44.357Z,27.00
2024-05-09T12:28:14.575Z,26.90
2024-05-09T12:30:43.674Z,26.70
2024-05-09T12:33:14.861Z,26.50
2024-05-09T12:35:45.199Z,26.30
2024-05-09T12:38:16.867Z,26.10
2024-05-09T12:40:47.139Z,25.90
2024-05-09T12:43:17.303Z,25.80
2024-05-09T12:45:44.998Z,25.70
2024-05-09T12:48:15.510Z,25.50
2024-05-09T12:50:43.200Z,25.30
2024-05-09T12:53:13.491Z,25.10
2024-05-09T12:55:48.426Z,25.00
2024-05-09T12:58:29.020Z,25.00
2024-05-09T13:00:56.871Z,25.00
2024-05-09T13:03:27.066Z,25.00
2024-05-09T13:05:55.150Z,24.90
2024-05-09T13:08:25.643Z,24.80
2024-05-09T13:10:53.253Z,24.70
2024-05-09T13:13:23.443Z,24.60
2024-05-09T13:15:53.589Z,24.30
2024-05-09T13:18:23.661Z,24.20
2024-05-09T13:20:51.082Z,24.10
2024-05-09T13:23:21.171Z,24.10
2024-05-09T13:25:49.957Z,24.00
2024-05-09T13:28:20.213Z,23.90
2024-05-09T13:30:47.682Z,23.90
2024-05-09T13:33:20.670Z,23.70
2024-05-09T13:35:50.600Z,23.70
2024-05-09T13:38:22.071Z,23.60
2024-05-09T13:40:50.558Z,23.60
2024-05-09T13:43:22.292Z,23.60
2024-05-09T13:45:50.311Z,23.60
2024-05-09T13:48:23.450Z,23.60
2024-05-09T13:50:51.045Z,23.50
2024-05-09T13:53:21.128Z,23.50
2024-05-09T13:55:49.147Z,23.40
2024-05-09T13:58:19.784Z,23.40
2024-05-09T14:00:49.035Z,23.30
2024-05-09T14:03:22.802Z,23.20
2024-05-09T14:05:51.545Z,23.20
2024-05-09T14:08:22.880Z,23.20
2024-05-09T14:10:51.050Z,23.20
2024-05-09T14:13:21.402Z,23.10
2024-05-09T14:15:49.364Z,23.00
2024-05-09T14:18:22.509Z,23.00
2024-05-09T14:20:50.010Z,22.90
2024-05-09T14:23:21.273Z,22.80
2024-05-09T14:25:52.166Z,22.70
2024-05-09T14:28:23.191Z,22.80
2024-05-09T14:30:53.629Z,22.80
2024-05-09T14:33:27.159Z,22.80
2024-05-09T14:35:54.900Z,22.70
2024-05-09T14:38:25.229Z,22.70
2024-05-09T14:40:53.046Z,22.70
2024-05-09T14:43:23.287Z,22.70
2024-05-09T14:45:50.859Z,22.60
2024-05-09T14:48:27.209Z,22.50
2024-05-09T14:50:56.916Z,22.50
2024-05-09T14:53:28.308Z,22.50
2024-05-09T14:55:55.894Z,22.50
2024-05-09T14:58:26.625Z,22.50
2024-05-09T15:00:54.360Z,22.50
2024-05-09T15:03:28.358Z,22.60
2024-05-09T15:05:55.990Z,22.60
2024-05-09T15:08:26.227Z,22.60
2024-05-09T15:10:53.746Z,22.60
2024-05-09T15:13:24.605Z,22.70
2024-05-09T15:15:52.234Z,22.70
2024-05-09T15:18:28.212Z,22.70
2024-05-09T15:20:56.258Z,22.80
2024-05-09T15:23:26.589Z,22.80
2024-05-09T15:25:54.038Z,22.70
2024-05-09T15:28:24.418Z,22.70
2024-05-09T15:30:52.163Z,22.80
2024-05-09T15:33:24.325Z,22.70
2024-05-09T15:35:54.653Z,22.70
2024-05-09T15:38:26.517Z,22.60
2024-05-09T15:40:54.129Z,22.50
2024-05-09T15:43:25.428Z,22.50
2024-05-09T15:45:53.299Z,22.50
2024-05-09T15:48:23.573Z,22.50
2024-05-09T15:50:53.800Z,22.50
2024-05-09T15:53:24.045Z,22.40
2024-05-09T15:55:51.580Z,22.40
2024-05-09T15:58:22.138Z,22.50
2024-05-09T16:00:52.052Z,22.50
2024-05-09T16:03:23.488Z,22.50
2024-05-09T16:05:55.248Z,22.50
2024-05-09T16:08:25.525Z,22.40
2024-05-09T16:10:53.159Z,22.40
2024-05-09T16:13:23.430Z,22.30
2024-05-09T16:15:51.213Z,22.20
2024-05-09T16:18:21.638Z,22.20
2024-05-09T16:20:50.274Z,22.20
2024-05-09T16:23:23.375Z,22.20
2024-05-09T16:25:51.660Z,22.10
2024-05-09T16:28:23.064Z,22.00
2024-05-09T16:30:52.185Z,21.90
2024-05-09T16:33:24.038Z,21.80
2024-05-09T16:35:51.832Z,21.70
2024-05-09T16:38:24.592Z,21.70
2024-05-09T16:40:52.307Z,21.60
2024-05-09T16:43:25.231Z,21.60
2024-05-09T16:45:55.677Z,21.50
2024-05-09T16:48:25.828Z,21.40
2024-05-09T16:50:53.273Z,21.40
2024-05-09T16:53:26.481Z,21.20
2024-05-09T16:55:54.205Z,21.10
2024-05-09T16:58:24.881Z,21.00
2024-05-09T17:00:55.516Z,21.00
2024-05-09T17:03:26.117Z,20.90
2024-05-09T17:05:53.825Z,20.80
2024-05-09T17:08:26.594Z,20.80
2024-05-09T17:10:54.289Z,20.60
2024-05-09T17:13:24.722Z,20.60
2024-05-09T17:15:52.424Z,20.50
2024-05-09T17:18:22.665Z,20.40
2024-05-09T17:20:53.121Z,20.30
2024-05-09T17:23:20.679Z,20.20
2024-05-09T17:25:53.362Z,20.10
2024-05-09T17:28:21.038Z,20.00
2024-05-09T17:30:51.451Z,19.90
2024-05-09T17:33:19.301Z,19.90
2024-05-09T17:35:50.844Z,19.70
2024-05-09T17:38:19.234Z,19.60
2024-05-09T17:40:49.376Z,19.50
2024-05-09T17:43:19.997Z,19.50
2024-05-09T17:45:50.555Z,19.40
2024-05-09T17:48:18.730Z,19.30
2024-05-09T17:50:49.234Z,19.10
2024-05-09T17:53:16.988Z,19.00
2024-05-09T17:55:48.350Z,18.90
2024-05-09T17:58:19.368Z,18.80
2024-05-09T18:00:49.669Z,18.70
2024-05-09T18:03:17.331Z,18.60
2024-05-09T18:05:47.671Z,18.50
2024-05-09T18:08:15.264Z,18.40
2024-05-09T18:10:45.624Z,18.30
2024-05-09T18:13:13.484Z,18.20
2024-05-09T18:15:46.427Z,18.10
2024-05-09T18:18:14.136Z,18.00
2024-05-09T18:20:46.166Z,17.90
2024-05-09T18:23:16.809Z,17.70
2024-05-09T18:25:48.463Z,17.60
2024-05-09T18:28:17.091Z,17.50
2024-05-09T18:30:50.206Z,17.40
2024-05-09T18:33:17.950Z,17.20
2024-05-09T18:35:48.941Z,17.10
2024-05-09T18:38:17.770Z,17.00
2024-05-09T18:40:49.387Z,16.80
2024-05-09T18:43:17.631Z,16.70
2024-05-09T18:45:50.736Z,16.60
2024-05-09T18:48:18.438Z,16.50
2024-05-09T18:50:48.734Z,16.40
2024-05-09T18:53:16.353Z,16.30
2024-05-09T18:55:46.656Z,16.30
2024-05-09T18:58:14.266Z,16.20
2024-05-09T19:00:46.691Z,16.10
2024-05-09T19:03:19.597Z,16.00
2024-05-09T19:05:50.041Z,15.90
2024-05-09T19:08:17.635Z,15.80
2024-05-09T19:10:48.202Z,15.60
2024-05-09T19:13:16.679Z,15.50
2024-05-09T19:15:46.892Z,15.40
2024-05-09T19:18:17.835Z,15.40
2024-05-09T19:20:50.703Z,15.30
2024-05-09T19:23:18.420Z,15.20
2024-05-09T19:25:48.527Z,15.20
2024-05-09T19:28:16.409Z,15.10
2024-05-09T19:30:46.801Z,15.00
2024-05-09T19:33:14.919Z,14.90
2024-05-09T19:35:45.270Z,14.90
2024-05-09T19:38:15.394Z,14.70
2024-05-09T19:40:45.628Z,14.70
2024-05-09T19:43:13.279Z,14.60
2024-05-09T19:45:43.792Z,14.50
2024-05-09T19:48:11.731Z,14.40
2024-05-09T19:50:44.315Z,14.40
2024-05-09T19:53:17.704Z,14.40
2024-05-09T19:55:47.858Z,14.30
2024-05-09T19:58:18.083Z,14.30
2024-05-09T20:00:45.844Z,14.20
2024-05-09T20:03:17.189Z,14.20
2024-05-09T20:05:46.402Z,14.10
2024-05-09T20:08:19.972Z,14.10
2024-05-09T20:10:47.850Z,14.10
2024-05-09T20:13:18.049Z,14.00
2024-05-09T20:15:45.759Z,13.90
2024-05-09T20:18:16.042Z,13.90
2024-05-09T20:20:45.296Z,13.90
2024-05-09T20:23:16.557Z,13.70
2024-05-09T20:25:46.761Z,13.60
2024-05-09T20:28:16.835Z,13.60
2024-05-09T20:30:44.387Z,13.50
2024-05-09T20:33:14.719Z,13.50
2024-05-09T20:35:44.228Z,13.50
2024-05-09T20:38:14.396Z,13.40
2024-05-09T20:40:42.006Z,13.40
2024-05-09T20:43:17.170Z,13.40
2024-05-09T20:45:44.850Z,13.30
2024-05-09T20:48:15.032Z,13.30
2024-05-09T20:50:43.113Z,13.20
2024-05-09T20:53:15.292Z,13.20
2024-05-09T20:55:44.087Z,13.20
2024-05-09T20:58:17.644Z,13.10
2024-05-09T21:00:46.338Z,12.90
2024-05-09T21:03:17.979Z,12.90
2024-05-09T21:05:46.619Z,12.90
2024-05-09T21:08:17.229Z,12.90
2024-05-09T21:10:44.913Z,12.80
2024-05-09T21:13:17.818Z,12.80
2024-05-09T21:15:47.713Z,12.70
2024-05-09T21:18:18.016Z,12.70
2024-05-09T21:20:45.444Z,12.60
2024-05-09T21:23:17.914Z,12.60
2024-05-09T21:25:47.703Z,12.60
2024-05-09T21:28:20.535Z,12.50
2024-05-09T21:30:48.264Z,12.50
2024-05-09T21:33:19.386Z,12.50
2024-05-09T21:35:46.940Z,12.40
2024-05-09T21:38:17.991Z,12.40
2024-05-09T21:40:45.723Z,12.40
2024-05-09T21:43:15.899Z,12.40
2024-05-09T21:45:46.146Z,12.40
2024-05-09T21:48:18.824Z,12.30
2024-05-09T21:50:46.346Z,12.20
2024-05-09T21:53:17.268Z,12.20
2024-05-09T21:55:45.046Z,12.20
2024-05-09T21:58:16.033Z,12.10
2024-05-09T22:00:46.682Z,12.10
2024-05-09T22:03:17.317Z,12.00
2024-05-09T22:05:45.538Z,12.00
2024-05-09T22:08:18.205Z,12.00
2024-05-09T22:10:45.878Z,11.90
2024-05-09T22:13:17.066Z,11.90
2024-05-09T22:15:47.259Z,11.90
2024-05-09T22:18:17.405Z,11.80
2024-05-09T22:20:46.397Z,11.80
2024-05-09T22:23:17.378Z,11.80
2024-05-09T22:25:44.952Z,11.90
2024-05-09T22:28:17.214Z,11.80
2024-05-09T22:30:47.814Z,11.80
2024-05-09T22:33:18.260Z,11.80
2024-05-09T22:35:45.793Z,11.80
2024-05-09T22:38:15.923Z,11.80
2024-05-09T22:40:48.302Z,11.80
2024-05-09T22:43:23.882Z,11.70
2024-05-09T22:45:55.674Z,11.60
2024-05-09T22:48:26.478Z,11.60
2024-05-09T22:50:54.842Z,11.60
2024-05-09T22:53:26.402Z,11.50
2024-05-09T22:55:54.381Z,11.50
2024-05-09T22:58:25.441Z,11.40
2024-05-09T23:00:55.821Z,11.40
2024-05-09T23:03:26.186Z,11.30
2024-05-09T23:05:53.862Z,11.20
2024-05-09T23:08:24.106Z,11.20
2024-05-09T23:10:51.729Z,11.10
2024-05-09T23:13:22.331Z,11.10
2024-05-09T23:15:50.909Z,11.00
2024-05-09T23:18:24.157Z,11.00
2024-05-09T23:20:52.005Z,11.00
2024-05-09T23:23:22.239Z,11.00
2024-05-09T23:25:49.944Z,11.00
2024-05-09T23:28:19.971Z,10.90
2024-05-09T23:30:47.468Z,10.90
2024-05-09T23:33:17.984Z,10.80
2024-05-09T23:35:48.180Z,10.90
2024-05-09T23:38:20.906Z,10.80
2024-05-09T23:40:49.881Z,10.80
2024-05-09T23:43:20.097Z,10.80
2024-05-09T23:45:47.625Z,10.80
2024-05-09T23:48:17.783Z,10.70
2024-05-09T23:50:47.884Z,10.70
2024-05-09T23:53:17.935Z,10.70
2024-05-09T23:55:45.406Z,10.70
2024-05-09T23:58:15.522Z,10.60
